createdAt,value
2022-10-05T00:00:36.732Z,12.50
2022-10-05T00:03:11.855Z,11.05
2022-10-05T00:05:40.001Z,10.70
2022-10-05T00:08:15.040Z,10.45
2022-10-05T00:10:43.428Z,9.73
2022-10-05T00:13:17.614Z,7.80
2022-10-05T00:15:45.631Z,7.03
2022-10-05T00:18:16.224Z,5.63
2022-10-05T00:20:45.078Z,6.50
2022-10-05T00:23:19.346Z,6.55
2022-10-05T00:25:47.254Z,7.05
2022-10-05T00:28:19.893Z,10.13
2022-10-05T00:30:47.944Z,8.90
2022-10-05T00:33:15.595Z,7.60
2022-10-05T00:35:43.309Z,9.52
2022-10-05T00:38:11.047Z,14.63
2022-10-05T00:40:55.210Z,8.95
2022-10-05T00:43:36.834Z,8.82
2022-10-05T00:46:13.638Z,7.90
2022-10-05T00:48:49.313Z,7.82
2022-10-05T00:51:25.544Z,8.20
2022-10-05T00:54:08.568Z,7.20
2022-10-05T00:56:56.472Z,7.55
2022-10-05T00:59:42.499Z,8.20
2022-10-05T01:02:16.412Z,7.82
2022-10-05T01:04:50.624Z,8.55
2022-10-05T01:07:27.351Z,9.48
2022-10-05T01:10:02.583Z,7.82
2022-10-05T01:12:38.770Z,8.45
2022-10-05T01:15:12.055Z,8.77
2022-10-05T01:17:44.845Z,9.15
2022-10-05T01:20:26.375Z,10.10
2022-10-05T01:23:19.584Z,9.48
2022-10-05T01:25:57.973Z,8.32
2022-10-05T01:28:30.754Z,8.43
2022-10-05T01:31:06.256Z,8.90
2022-10-05T01:33:42.426Z,9.50
2022-10-05T01:36:17.953Z,10.30
2022-10-05T01:38:55.382Z,9.25
2022-10-05T01:41:34.156Z,7.88
2022-10-05T01:44:10.403Z,8.20
2022-10-05T01:46:43.506Z,7.88
2022-10-05T01:49:26.046Z,7.60
2022-10-05T01:54:38.213Z,6.70
2022-10-05T01:57:14.416Z,7.68
2022-10-05T02:00:03.779Z,6.82
2022-10-05T02:02:35.849Z,7.82
2022-10-05T02:07:39.797Z,6.95
2022-10-05T02:10:15.646Z,7.03
2022-10-05T02:12:45.710Z,8.07
2022-10-05T02:15:18.340Z,8.77
2022-10-05T02:17:50.486Z,9.07
2022-10-05T02:22:54.278Z,9.15
2022-10-05T02:25:28.007Z,8.63
2022-10-05T02:28:00.497Z,9.52
2022-10-05T02:30:31.628Z,9.80
2022-10-05T02:33:02.547Z,8.07
2022-10-05T02:35:30.217Z,9.00
2022-10-05T02:38:07.392Z,9.20
2022-10-05T02:40:47.736Z,9.13
2022-10-05T02:43:24.933Z,11.10
2022-10-05T02:46:02.449Z,10.20
2022-10-05T02:48:42.028Z,9.07
2022-10-05T02:51:21.197Z,9.93
2022-10-05T02:54:01.935Z,9.35
2022-10-05T02:56:38.065Z,9.38
2022-10-05T02:59:15.844Z,9.13
2022-10-05T03:01:51.413Z,8.27
2022-10-05T03:04:30.517Z,7.25
2022-10-05T03:07:07.330Z,7.07
2022-10-05T03:09:40.246Z,6.55
2022-10-05T03:12:28.303Z,6.70
2022-10-05T03:15:04.958Z,6.47
2022-10-05T03:17:43.288Z,7.05
2022-10-05T03:20:22.369Z,9.30
2022-10-05T03:22:52.920Z,9.38
2022-10-05T03:25:35.132Z,8.75
2022-10-05T03:28:11.271Z,7.65
2022-10-05T03:30:48.249Z,6.55
2022-10-05T03:33:23.781Z,6.30
2022-10-05T03:35:57.499Z,6.22
2022-10-05T03:38:31.902Z,5.70
2022-10-05T03:41:09.745Z,5.63
2022-10-05T03:44:10.996Z,5.60
2022-10-05T03:46:59.135Z,5.50
2022-10-05T03:49:39.298Z,4.68
2022-10-05T03:52:12.519Z,4.90
2022-10-05T03:54:44.609Z,5.28
2022-10-05T03:57:16.745Z,4.90
2022-10-05T04:02:25.921Z,4.38
2022-10-05T04:05:01.370Z,4.20
2022-10-05T04:07:39.014Z,4.45
2022-10-05T04:10:15.686Z,4.40
2022-10-05T04:12:47.159Z,4.75
2022-10-05T04:15:20.604Z,5.40
2022-10-05T04:17:52.838Z,5.63
2022-10-05T04:20:26.667Z,4.30
2022-10-05T04:23:03.948Z,4.50
2022-10-05T04:25:38.119Z,3.88
2022-10-05T04:28:14.329Z,4.43
2022-10-05T04:30:45.949Z,4.32
2022-10-05T04:33:15.930Z,4.88
2022-10-05T04:36:14.653Z,4.60
2022-10-05T04:38:53.867Z,4.13
2022-10-05T04:41:35.450Z,4.20
2022-10-05T04:44:17.187Z,5.15
2022-10-05T04:47:02.115Z,5.10
2022-10-05T04:49:45.724Z,5.20
2022-10-05T04:52:24.997Z,5.85
2022-10-05T04:55:05.089Z,5.10
2022-10-05T04:57:41.719Z,6.25
2022-10-05T05:00:23.968Z,6.15
2022-10-05T05:03:16.690Z,7.13
2022-10-05T05:06:15.223Z,7.82
2022-10-05T05:09:02.496Z,8.20
2022-10-05T05:11:39.446Z,7.75
2022-10-05T05:14:27.936Z,7.75
2022-10-05T05:17:13.173Z,8.90
2022-10-05T05:19:52.894Z,10.38
2022-10-05T05:22:29.956Z,10.23
2022-10-05T05:25:18.203Z,10.23
2022-10-05T05:27:50.391Z,14.65
2022-10-05T05:32:59.905Z,14.55
2022-10-05T05:35:40.645Z,14.38
2022-10-05T05:38:23.197Z,14.68
2022-10-05T05:41:04.441Z,15.48
2022-10-05T05:43:42.519Z,16.67
2022-10-05T05:46:17.731Z,16.73
2022-10-05T05:48:48.425Z,17.15
2022-10-05T05:51:21.994Z,15.68
2022-10-05T05:53:53.403Z,17.33
2022-10-05T05:56:30.519Z,15.35
2022-10-05T05:59:04.354Z,14.35
2022-10-05T06:01:40.704Z,13.38
2022-10-05T06:04:15.771Z,11.68
2022-10-05T06:06:49.409Z,11.30
2022-10-05T06:09:22.324Z,9.23
2022-10-05T06:11:55.102Z,9.68
2022-10-05T06:14:30.376Z,10.27
2022-10-05T06:17:04.290Z,11.68
2022-10-05T06:19:35.041Z,12.23
2022-10-05T06:22:08.029Z,10.50
2022-10-05T06:24:41.654Z,10.38
2022-10-05T06:27:26.338Z,9.30
2022-10-05T06:30:06.273Z,9.23
2022-10-05T06:32:39.709Z,7.45
2022-10-05T06:35:19.082Z,6.78
2022-10-05T06:38:16.293Z,5.47
2022-10-05T06:41:01.242Z,4.95
2022-10-05T06:43:44.800Z,5.03
2022-10-05T06:46:18.798Z,5.10
2022-10-05T06:49:13.361Z,3.95
2022-10-05T06:51:48.942Z,4.65
2022-10-05T06:54:32.917Z,4.85
2022-10-05T06:57:05.960Z,5.13
2022-10-05T06:59:44.984Z,6.07
2022-10-05T07:02:24.512Z,6.50
2022-10-05T07:05:20.944Z,5.85
2022-10-05T07:07:54.959Z,4.82
2022-10-05T07:10:32.358Z,4.53
2022-10-05T07:13:36.665Z,4.45
2022-10-05T07:16:13.520Z,3.40
2022-10-05T07:18:56.421Z,4.35
2022-10-05T07:21:35.592Z,4.40
2022-10-05T07:24:14.957Z,3.75
2022-10-05T07:26:47.078Z,3.78
2022-10-05T07:29:24.579Z,3.55
2022-10-05T07:32:02.268Z,4.05
2022-10-05T07:34:41.639Z,3.45
2022-10-05T07:37:30.189Z,4.68
2022-10-05T07:40:07.912Z,4.50
2022-10-05T07:42:52.245Z,4.00
2022-10-05T07:45:29.301Z,4.22
2022-10-05T07:48:02.778Z,4.10
2022-10-05T07:50:36.821Z,4.55
2022-10-05T07:53:15.196Z,4.55
2022-10-05T07:55:49.153Z,4.07
2022-10-05T07:58:24.297Z,4.10
2022-10-05T08:01:05.829Z,3.83
2022-10-05T08:03:47.275Z,4.13
2022-10-05T08:06:35.802Z,4.18
2022-10-05T08:09:12.123Z,3.83
2022-10-05T08:11:49.189Z,3.70
2022-10-05T08:14:26.332Z,3.88
2022-10-05T08:16:58.765Z,3.72
2022-10-05T08:19:36.346Z,3.33
2022-10-05T08:22:07.252Z,3.42
2022-10-05T08:24:43.676Z,3.47
2022-10-05T08:27:18.114Z,3.75
2022-10-05T08:29:56.387Z,3.70
2022-10-05T08:32:26.830Z,3.38
2022-10-05T08:35:03.620Z,3.50
2022-10-05T08:37:35.502Z,3.08
2022-10-05T08:43:15.777Z,3.40
2022-10-05T08:46:13.867Z,3.50
2022-10-05T08:49:17.007Z,3.20
2022-10-05T08:52:13.157Z,2.97
2022-10-05T08:55:08.450Z,3.63
2022-10-05T08:58:17.972Z,14.38
2022-10-05T09:00:56.782Z,4.40
2022-10-05T09:03:44.330Z,3.63
2022-10-05T09:06:51.690Z,4.20
2022-10-05T09:10:01.961Z,4.15
2022-10-05T09:13:19.223Z,3.83
2022-10-05T09:16:17.568Z,4.07
2022-10-05T09:19:19.229Z,3.70
2022-10-05T09:21:57.914Z,3.60
2022-10-05T09:24:42.856Z,3.50
2022-10-05T09:27:16.644Z,3.17
2022-10-05T09:30:18.393Z,3.30
2022-10-05T09:33:09.355Z,4.03
2022-10-05T09:36:24.948Z,2.85
2022-10-05T09:39:20.234Z,3.25
2022-10-05T09:42:23.282Z,4.10
2022-10-05T09:45:26.854Z,4.05
2022-10-05T09:48:27.897Z,3.72
2022-10-05T09:51:27.934Z,3.83
2022-10-05T09:54:37.039Z,3.75
2022-10-05T09:57:39.500Z,3.42
2022-10-05T10:03:21.155Z,3.85
2022-10-05T10:06:14.967Z,3.60
2022-10-05T10:09:08.566Z,3.90
2022-10-05T10:11:55.330Z,3.70
2022-10-05T10:14:49.959Z,3.10
2022-10-05T10:17:35.298Z,3.60
2022-10-05T10:20:35.734Z,3.72
2022-10-05T10:23:16.866Z,3.13
2022-10-05T10:26:02.418Z,2.40
2022-10-05T10:29:00.259Z,2.13
2022-10-05T10:32:05.245Z,2.03
2022-10-05T10:35:09.479Z,1.83
2022-10-05T10:37:59.529Z,2.15
2022-10-05T10:40:38.830Z,1.50
2022-10-05T10:43:44.025Z,1.33
2022-10-05T10:46:25.236Z,1.35
2022-10-05T10:49:03.090Z,1.60
2022-10-05T10:51:54.800Z,1.40
2022-10-05T10:54:52.647Z,1.42
2022-10-05T10:57:29.873Z,1.77
2022-10-05T11:00:23.870Z,1.33
2022-10-05T11:03:34.012Z,1.30
2022-10-05T11:06:18.909Z,1.52
2022-10-05T11:09:09.799Z,1.40
2022-10-05T11:11:58.486Z,1.67
2022-10-05T11:14:53.769Z,1.38
2022-10-05T11:17:33.565Z,1.00
2022-10-05T11:20:49.053Z,1.38
2022-10-05T11:23:46.165Z,1.13
2022-10-05T11:26:32.430Z,1.60
2022-10-05T11:29:18.178Z,1.63
2022-10-05T11:32:17.835Z,1.75
2022-10-05T11:35:16.141Z,2.33
2022-10-05T11:38:02.877Z,1.48
2022-10-05T11:41:06.679Z,1.50
2022-10-05T11:44:06.109Z,1.48
2022-10-05T11:46:42.184Z,1.30
2022-10-05T11:49:27.898Z,1.10
2022-10-05T11:52:08.315Z,1.10
2022-10-05T11:55:11.438Z,1.20
2022-10-05T11:57:48.971Z,1.10
2022-10-05T12:00:19.705Z,1.75
2022-10-05T12:03:16.810Z,1.50
2022-10-05T12:05:58.687Z,1.20
2022-10-05T12:08:36.666Z,1.55
2022-10-05T12:11:26.252Z,1.00
2022-10-05T12:14:00.568Z,2.35
2022-10-05T12:16:34.785Z,1.30
2022-10-05T12:19:10.667Z,1.33
2022-10-05T12:21:45.740Z,1.17
2022-10-05T12:24:21.198Z,1.00
2022-10-05T12:26:59.131Z,1.15
2022-10-05T12:29:32.154Z,1.30
2022-10-05T12:32:05.304Z,1.25
2022-10-05T12:34:48.636Z,1.25
2022-10-05T12:37:38.814Z,1.23
2022-10-05T12:40:18.617Z,1.00
2022-10-05T12:42:53.082Z,1.40
2022-10-05T12:45:31.044Z,1.10
2022-10-05T12:48:18.815Z,1.05
2022-10-05T12:50:50.641Z,1.10
2022-10-05T12:53:43.131Z,1.13
2022-10-05T12:56:17.089Z,1.60
2022-10-05T12:58:53.667Z,1.60
2022-10-05T13:01:30.887Z,1.25
2022-10-05T13:04:15.165Z,1.55
2022-10-05T13:06:50.028Z,1.40
2022-10-05T13:09:29.214Z,1.48
2022-10-05T13:12:04.226Z,1.42
2022-10-05T13:14:52.046Z,1.50
2022-10-05T13:17:29.717Z,1.50
2022-10-05T13:20:00.168Z,1.23
2022-10-05T13:22:37.623Z,1.63
2022-10-05T13:25:22.649Z,1.27
2022-10-05T13:27:59.925Z,2.00
2022-10-05T13:30:28.687Z,1.42
2022-10-05T13:33:01.745Z,1.48
2022-10-05T13:35:44.930Z,1.40
2022-10-05T13:38:30.038Z,1.50
2022-10-05T13:41:06.515Z,1.40
2022-10-05T13:43:40.720Z,1.55
2022-10-05T13:46:18.597Z,1.35
2022-10-05T13:48:56.765Z,1.40
2022-10-05T13:51:28.128Z,1.60
2022-10-05T13:54:04.726Z,1.25
2022-10-05T13:56:38.525Z,1.50
2022-10-05T13:59:19.789Z,1.42
2022-10-05T14:01:53.652Z,1.70
2022-10-05T14:04:24.536Z,1.50
2022-10-05T14:07:22.848Z,1.48
2022-10-05T14:09:50.853Z,1.50
2022-10-05T14:12:23.348Z,1.58
2022-10-05T14:14:53.043Z,1.40
2022-10-05T14:17:38.991Z,1.27
2022-10-05T14:20:23.553Z,1.88
2022-10-05T14:22:55.615Z,1.30
2022-10-05T14:25:23.449Z,1.58
2022-10-05T14:28:00.701Z,1.30
2022-10-05T14:30:30.169Z,1.30
2022-10-05T14:33:07.886Z,1.60
2022-10-05T14:35:48.926Z,1.30
2022-10-05T14:38:22.783Z,1.75
2022-10-05T14:41:16.127Z,1.55
2022-10-05T14:43:53.598Z,1.65
2022-10-05T14:46:28.210Z,1.38
2022-10-05T14:49:13.815Z,2.03
2022-10-05T14:51:42.746Z,1.50
2022-10-05T14:54:31.025Z,1.60
2022-10-05T14:57:06.374Z,1.50
2022-10-05T15:00:04.253Z,1.42
2022-10-05T15:03:03.548Z,1.67
2022-10-05T15:05:36.793Z,1.30
2022-10-05T15:08:21.068Z,1.70
2022-10-05T15:10:52.191Z,1.60
2022-10-05T15:13:23.196Z,1.30
2022-10-05T15:15:55.494Z,1.42
2022-10-05T15:18:32.384Z,1.58
2022-10-05T15:21:17.348Z,1.40
2022-10-05T15:23:52.828Z,1.63
2022-10-05T15:26:36.406Z,1.40
2022-10-05T15:29:12.133Z,1.55
2022-10-05T15:31:50.196Z,1.80
2022-10-05T15:34:26.983Z,1.50
2022-10-05T15:37:00.306Z,1.80
2022-10-05T15:39:36.888Z,1.70
2022-10-05T15:42:08.146Z,1.35
2022-10-05T15:44:52.046Z,1.70
2022-10-05T15:47:26.628Z,1.67
2022-10-05T15:50:03.769Z,1.40
2022-10-05T15:52:37.702Z,1.52
2022-10-05T15:55:35.091Z,1.58
2022-10-05T15:58:36.799Z,1.40
2022-10-05T16:01:11.143Z,1.95
2022-10-05T16:03:49.083Z,1.70
2022-10-05T16:06:48.745Z,1.60
2022-10-05T16:09:33.152Z,1.40
2022-10-05T16:12:10.106Z,1.50
2022-10-05T16:14:55.056Z,1.63
2022-10-05T16:17:36.875Z,1.35
2022-10-05T16:20:21.844Z,1.30
2022-10-05T16:22:59.656Z,2.13
2022-10-05T16:25:35.202Z,1.20
2022-10-05T16:28:16.987Z,1.20
2022-10-05T16:30:55.929Z,1.63
2022-10-05T16:33:32.517Z,1.55
2022-10-05T16:36:10.530Z,1.40
2022-10-05T16:38:46.915Z,1.70
2022-10-05T16:41:20.916Z,1.40
2022-10-05T16:43:54.978Z,1.50
2022-10-05T16:46:30.699Z,1.48
2022-10-05T16:49:07.721Z,1.50
2022-10-05T16:51:44.445Z,1.60
2022-10-05T16:54:19.147Z,1.88
2022-10-05T16:56:52.182Z,2.00
2022-10-05T16:59:43.239Z,1.85
2022-10-05T17:02:20.609Z,1.42
2022-10-05T17:05:00.809Z,1.70
2022-10-05T17:07:50.351Z,1.73
2022-10-05T17:10:47.465Z,1.80
2022-10-05T17:13:29.609Z,1.70
2022-10-05T17:16:07.199Z,1.80
2022-10-05T17:19:19.181Z,2.25
2022-10-05T17:21:57.359Z,1.50
2022-10-05T17:24:34.303Z,1.45
2022-10-05T17:27:18.707Z,1.60
2022-10-05T17:29:51.731Z,1.70
2022-10-05T17:32:36.118Z,1.95
2022-10-05T17:35:18.800Z,1.60
2022-10-05T17:38:14.447Z,1.80
2022-10-05T17:41:05.486Z,2.05
2022-10-05T17:43:34.681Z,3.80
2022-10-05T17:46:06.162Z,2.08
2022-10-05T17:49:06.705Z,1.90
2022-10-05T17:52:17.963Z,1.73
2022-10-05T17:55:30.397Z,2.20
2022-10-05T17:58:01.977Z,2.20
2022-10-05T18:01:06.610Z,2.63
2022-10-05T18:03:40.739Z,2.05
2022-10-05T18:06:37.251Z,1.88
2022-10-05T18:09:30.697Z,1.88
2022-10-05T18:12:36.960Z,1.73
2022-10-05T18:15:31.133Z,2.17
2022-10-05T18:18:20.469Z,2.30
2022-10-05T18:21:08.381Z,1.80
2022-10-05T18:23:36.674Z,1.85
2022-10-05T18:26:20.678Z,1.75
2022-10-05T18:28:58.048Z,2.45
2022-10-05T18:31:34.312Z,3.50
2022-10-05T18:34:14.247Z,2.00
2022-10-05T18:37:08.537Z,1.98
2022-10-05T18:39:56.632Z,1.70
2022-10-05T18:42:33.585Z,2.08
2022-10-05T18:45:11.088Z,1.90
2022-10-05T18:47:48.239Z,1.98
2022-10-05T18:50:26.597Z,1.92
2022-10-05T18:53:09.563Z,1.70
2022-10-05T18:55:42.453Z,1.70
2022-10-05T18:58:25.901Z,5.78
2022-10-05T19:01:14.584Z,2.90
2022-10-05T19:03:56.522Z,1.67
2022-10-05T19:06:27.966Z,2.28
2022-10-05T19:09:08.323Z,1.95
2022-10-05T19:11:43.033Z,1.80
2022-10-05T19:14:18.586Z,1.70
2022-10-05T19:16:58.659Z,1.73
2022-10-05T19:19:43.807Z,1.95
2022-10-05T19:22:19.665Z,1.52
2022-10-05T19:25:07.133Z,1.70
2022-10-05T19:27:45.243Z,2.80
2022-10-05T19:30:19.766Z,2.28
2022-10-05T19:33:08.657Z,2.10
2022-10-05T19:35:53.626Z,2.40
2022-10-05T19:38:30.296Z,2.25
2022-10-05T19:41:04.343Z,2.15
2022-10-05T19:43:43.122Z,2.60
2022-10-05T19:46:19.865Z,2.08
2022-10-05T19:48:49.776Z,2.20
2022-10-05T19:51:29.389Z,2.15
2022-10-05T19:54:01.214Z,2.60
2022-10-05T19:56:33.424Z,2.20
2022-10-05T19:59:14.082Z,2.00
2022-10-05T20:01:49.077Z,2.20
2022-10-05T20:04:33.037Z,2.03
2022-10-05T20:07:02.924Z,2.60
2022-10-05T20:09:49.392Z,2.60
2022-10-05T20:12:17.103Z,2.63
2022-10-05T20:15:04.820Z,2.45
2022-10-05T20:17:49.715Z,2.30
2022-10-05T20:20:38.263Z,2.38
2022-10-05T20:23:24.337Z,2.60
2022-10-05T20:26:06.074Z,2.25
2022-10-05T20:28:34.154Z,2.17
2022-10-05T20:31:01.892Z,3.03
2022-10-05T20:33:30.348Z,2.85
2022-10-05T20:35:58.021Z,3.20
2022-10-05T20:38:27.426Z,3.22
2022-10-05T20:40:55.386Z,3.00
2022-10-05T20:43:23.082Z,2.90
2022-10-05T20:45:53.684Z,3.67
2022-10-05T20:48:21.355Z,3.40
2022-10-05T20:50:49.026Z,4.05
2022-10-05T20:53:16.693Z,4.05
2022-10-05T20:55:45.740Z,4.00
2022-10-05T20:58:13.444Z,3.13
2022-10-05T21:00:58.840Z,3.42
2022-10-05T21:03:27.020Z,2.53
2022-10-05T21:05:54.652Z,6.03
2022-10-05T21:08:22.322Z,5.38
2022-10-05T21:10:51.421Z,3.30
2022-10-05T21:13:19.070Z,3.22
2022-10-05T21:15:46.734Z,3.42
2022-10-05T21:18:15.666Z,3.42
2022-10-05T21:20:50.487Z,3.80
2022-10-05T21:23:18.150Z,3.45
2022-10-05T21:25:45.793Z,5.00
2022-10-05T21:28:15.152Z,5.43
2022-10-05T21:30:42.861Z,3.90
2022-10-05T21:33:10.719Z,2.60
2022-10-05T21:35:38.380Z,3.53
2022-10-05T21:38:06.033Z,3.20
2022-10-05T21:40:33.704Z,3.05
2022-10-05T21:43:02.267Z,2.75
2022-10-05T21:45:31.944Z,3.75
2022-10-05T21:47:59.785Z,3.72
2022-10-05T21:50:27.832Z,3.30
2022-10-05T21:52:55.687Z,4.72
2022-10-05T21:55:23.376Z,5.78
2022-10-05T21:57:51.130Z,3.80
2022-10-05T22:00:19.162Z,3.05
2022-10-05T22:02:48.288Z,3.03
2022-10-05T22:05:16.438Z,2.20
2022-10-05T22:07:44.170Z,3.80
2022-10-05T22:10:11.968Z,2.50
2022-10-05T22:12:41.439Z,2.58
2022-10-05T22:15:10.101Z,2.90
2022-10-05T22:17:38.810Z,2.60
2022-10-05T22:20:11.555Z,4.68
2022-10-05T22:22:39.189Z,2.88
2022-10-05T22:25:07.715Z,2.88
2022-10-05T22:27:36.492Z,2.22
2022-10-05T22:30:05.655Z,2.97
2022-10-05T22:32:33.379Z,2.90
2022-10-05T22:35:01.055Z,3.10
2022-10-05T22:37:30.056Z,4.80
2022-10-05T22:39:57.757Z,3.22
2022-10-05T22:42:25.516Z,3.20
2022-10-05T22:44:53.160Z,3.40
2022-10-05T22:47:20.811Z,3.22
2022-10-05T22:49:48.454Z,2.67
2022-10-05T22:52:16.215Z,2.65
2022-10-05T22:54:45.261Z,3.00
2022-10-05T22:57:13.097Z,2.78
2022-10-05T22:59:40.734Z,3.05
2022-10-05T23:02:09.511Z,2.30
2022-10-05T23:04:37.510Z,2.88
2022-10-05T23:11:01.521Z,3.08
2022-10-05T23:13:29.304Z,2.75
2022-10-05T23:15:57.070Z,3.80
2022-10-05T23:18:25.519Z,2.70
2022-10-05T23:20:54.696Z,3.40
2022-10-05T23:23:22.852Z,4.05
2022-10-05T23:26:33.519Z,3.67
2022-10-05T23:29:05.284Z,3.70
2022-10-05T23:31:33.589Z,3.55
2022-10-05T23:34:01.413Z,3.40
2022-10-05T23:36:32.286Z,4.05
2022-10-05T23:39:01.017Z,4.60
2022-10-05T23:41:28.773Z,3.40
2022-10-05T23:43:56.678Z,3.67
2022-10-05T23:46:25.800Z,4.05
2022-10-05T23:48:53.527Z,4.13
2022-10-05T23:51:21.238Z,4.03
2022-10-05T23:53:48.960Z,3.22
2022-10-05T23:56:16.724Z,3.35
2022-10-05T23:58:44.966Z,3.88
